Time;durP1;ratioP1;P1;durP2;ratioP2;P2;SDS_P1;SDS_P2;PMS_P1;PMS_P2;Temp;Humidity;BMP_temperature;BMP_pressure;BME280_temperature;BME280_humidity;BME280_pressure;Samples;Min_cycle;Max_cycle;Signal;HPM_P1;HPM_P2
2023/05/15 00:00:26;;;;;;;6.30;4.30;;;11.70;99.90;;;;;;5054626;28;20394;-79
2023/05/15 00:02:52;;;;;;;4.55;3.85;;;11.70;99.90;;;;;;5054573;28;20611;-78
2023/05/15 00:05:18;;;;;;;5.75;4.43;;;11.70;99.90;;;;;;5054587;28;20033;-78
2023/05/15 00:07:43;;;;;;;4.20;3.80;;;11.70;99.90;;;;;;5054482;28;20433;-79
2023/05/15 00:10:09;;;;;;;4.55;4.15;;;11.70;99.90;;;;;;5054460;28;20421;-78
2023/05/15 00:12:35;;;;;;;5.05;4.25;;;11.70;99.90;;;;;;5054425;28;20029;-78
2023/05/15 00:15:01;;;;;;;6.03;4.40;;;11.70;99.90;;;;;;5054491;28;20041;-79
2023/05/15 00:17:27;;;;;;;6.18;4.90;;;11.60;99.90;;;;;;5053510;28;20064;-78
2023/05/15 00:19:57;;;;;;;6.13;5.00;;;11.70;99.90;;;;;;5054246;28;20037;-78
2023/05/15 00:22:24;;;;;;;5.40;4.88;;;11.60;99.90;;;;;;5052999;28;20082;-78
2023/05/15 00:24:49;;;;;;;5.78;4.38;;;11.60;99.90;;;;;;5052956;28;20067;-77
2023/05/15 00:27:15;;;;;;;5.40;4.82;;;11.60;99.90;;;;;;5052850;28;20432;-79
2023/05/15 00:29:40;;;;;;;5.88;4.35;;;11.60;99.90;;;;;;5052883;28;20025;-79
2023/05/15 00:32:06;;;;;;;5.07;4.20;;;11.60;99.90;;;;;;5053934;28;20064;-79
2023/05/15 00:34:32;;;;;;;6.13;4.00;;;11.60;99.90;;;;;;5054102;28;20123;-79
2023/05/15 00:36:58;;;;;;;5.95;4.25;;;11.60;99.90;;;;;;5054053;28;20397;-79
2023/05/15 00:39:24;;;;;;;5.70;4.93;;;11.60;99.90;;;;;;5053983;28;20036;-78
2023/05/15 00:41:50;;;;;;;5.82;4.05;;;11.60;99.90;;;;;;5053910;28;20021;-79
2023/05/15 00:44:18;;;;;;;5.38;4.30;;;11.60;99.90;;;;;;5052616;28;20021;-78
2023/05/15 00:46:45;;;;;;;4.20;3.80;;;11.60;99.90;;;;;;5052582;28;20067;-78
2023/05/15 00:49:13;;;;;;;6.60;4.32;;;11.60;99.90;;;;;;5053769;28;20037;-78
2023/05/15 00:51:41;;;;;;;4.78;4.38;;;11.60;99.90;;;;;;5053779;28;20087;-79
2023/05/15 00:54:08;;;;;;;4.75;4.25;;;11.50;99.90;;;;;;5053566;28;20473;-79
2023/05/15 00:56:34;;;;;;;5.57;4.47;;;11.50;99.90;;;;;;5052317;28;20017;-78
2023/05/15 00:59:02;;;;;;;7.63;4.10;;;11.50;99.90;;;;;;5053562;28;20488;-79
2023/05/15 01:01:32;;;;;;;5.38;4.70;;;11.50;99.90;;;;;;5051835;28;20031;-78
2023/05/15 01:03:58;;;;;;;6.13;4.78;;;11.50;99.90;;;;;;5052459;28;20037;-79
2023/05/15 01:06:24;;;;;;;9.30;4.32;;;11.50;99.90;;;;;;5052209;28;20047;-78
2023/05/15 01:08:52;;;;;;;5.43;4.72;;;11.50;99.90;;;;;;5053479;28;20021;-78
2023/05/15 01:11:18;;;;;;;5.13;4.57;;;11.40;99.90;;;;;;5053364;28;20025;-78
2023/05/15 01:13:44;;;;;;;5.30;4.80;;;11.40;99.90;;;;;;5053373;28;20029;-78
2023/05/15 01:16:10;;;;;;;7.55;4.80;;;11.40;99.90;;;;;;5051977;28;20021;-79
2023/05/15 01:18:36;;;;;;;6.78;5.40;;;11.40;99.90;;;;;;5051825;28;20041;-78
2023/05/15 01:21:05;;;;;;;6.82;5.20;;;11.40;99.90;;;;;;5053319;28;20071;-79
2023/05/15 01:23:42;;;;;;;7.03;5.20;;;11.40;99.90;;;;;;5052016;28;20048;-79
2023/05/15 01:26:32;;;;;;;6.15;5.55;;;11.40;99.90;;;;;;5053232;28;20017;-78
2023/05/15 01:29:11;;;;;;;7.78;5.03;;;11.40;99.90;;;;;;5051676;28;20036;-78
2023/05/15 01:31:39;;;;;;;6.22;5.20;;;11.40;99.90;;;;;;5051969;28;20032;-78
2023/05/15 01:34:07;;;;;;;6.28;5.25;;;11.40;99.90;;;;;;5053051;28;20106;-77
2023/05/15 01:36:46;;;;;;;7.40;5.72;;;11.30;99.90;;;;;;5051915;28;20029;-78
2023/05/15 01:39:14;;;;;;;7.57;5.78;;;11.40;99.90;;;;;;5053154;28;20021;-78
2023/05/15 01:41:58;;;;;;;7.65;5.78;;;11.30;99.90;;;;;;5052066;28;20025;-78
2023/05/15 01:44:32;;;;;;;6.13;5.20;;;11.40;99.90;;;;;;5051688;28;20032;-78
2023/05/15 01:47:03;;;;;;;8.02;6.43;;;11.40;99.90;;;;;;5053052;28;20482;-78
2023/05/15 01:49:30;;;;;;;6.63;5.78;;;11.40;99.90;;;;;;5051790;28;20044;-78
2023/05/15 01:52:09;;;;;;;6.82;5.93;;;11.30;99.90;;;;;;5051767;28;20534;-78
2023/05/15 01:54:35;;;;;;;6.70;6.00;;;11.30;99.90;;;;;;5051547;28;20033;-78
2023/05/15 01:57:01;;;;;;;8.43;5.80;;;11.30;99.90;;;;;;5051689;28;20021;-79
2023/05/15 01:59:28;;;;;;;7.78;6.18;;;11.30;99.90;;;;;;5052972;28;20043;-79
2023/05/15 02:01:56;;;;;;;7.45;5.70;;;11.30;99.90;;;;;;5051490;28;20032;-78
2023/05/15 02:04:23;;;;;;;6.88;5.85;;;11.30;99.90;;;;;;5051608;28;20039;-78
2023/05/15 02:06:49;;;;;;;9.70;7.22;;;11.30;99.90;;;;;;5051588;28;20021;-78
2023/05/15 02:09:15;;;;;;;6.28;5.63;;;11.30;99.90;;;;;;5052766;28;20087;-79
2023/05/15 02:11:41;;;;;;;6.85;5.65;;;11.30;99.90;;;;;;5051371;28;20051;-78
2023/05/15 02:14:09;;;;;;;6.65;5.95;;;11.30;99.90;;;;;;5052648;28;20037;-78
2023/05/15 02:16:35;;;;;;;6.25;5.63;;;11.30;99.90;;;;;;5052517;28;20100;-78
2023/05/15 02:19:00;;;;;;;7.45;5.88;;;11.30;99.90;;;;;;5052818;28;20536;-78
2023/05/15 02:21:26;;;;;;;10.35;5.80;;;11.30;99.90;;;;;;5052649;28;20028;-77
2023/05/15 02:23:52;;;;;;;6.65;6.03;;;11.30;99.90;;;;;;5052599;28;20040;-78
2023/05/15 02:26:30;;;;;;;7.80;6.28;;;11.30;99.90;;;;;;5051344;28;20036;-78
2023/05/15 02:29:20;;;;;;;5.63;5.13;;;11.30;99.90;;;;;;5052664;28;20471;-79
2023/05/15 02:32:02;;;;;;;6.38;5.57;;;11.30;99.90;;;;;;5051201;28;20025;-79
2023/05/15 02:34:49;;;;;;;5.45;4.95;;;11.30;99.90;;;;;;5052619;28;20044;-79
2023/05/15 02:37:19;;;;;;;6.55;5.80;;;11.30;99.90;;;;;;5051320;28;20047;-78
2023/05/15 02:39:48;;;;;;;6.18;5.57;;;11.30;99.90;;;;;;5052565;28;20537;-78
2023/05/15 02:42:14;;;;;;;6.55;5.70;;;11.30;99.90;;;;;;5055038;28;20446;-77
2023/05/15 02:44:42;;;;;;;6.03;5.40;;;11.30;99.90;;;;;;5054928;28;20017;-78
2023/05/15 02:47:10;;;;;;;5.65;5.15;;;11.20;99.90;;;;;;5054048;28;20079;-77
2023/05/15 02:49:36;;;;;;;6.55;5.97;;;11.30;99.90;;;;;;5056079;28;20478;-78
2023/05/15 02:52:02;;;;;;;6.00;5.40;;;11.30;99.90;;;;;;5056079;28;20025;-78
2023/05/15 02:54:27;;;;;;;6.88;5.47;;;11.30;99.90;;;;;;5054599;28;20087;-78
2023/05/15 02:56:53;;;;;;;8.90;6.18;;;11.30;99.90;;;;;;5055800;28;20021;-78
2023/05/15 02:59:18;;;;;;;7.50;5.85;;;11.30;99.90;;;;;;5055742;28;20029;-78
2023/05/15 03:01:45;;;;;;;6.97;6.28;;;11.30;99.90;;;;;;5054364;28;20417;-78
2023/05/15 03:04:13;;;;;;;7.57;6.55;;;11.30;99.90;;;;;;5055435;28;20630;-79
2023/05/15 03:06:39;;;;;;;7.65;6.45;;;11.30;99.90;;;;;;5052486;28;20494;-78
2023/05/15 03:09:04;;;;;;;6.40;5.75;;;11.30;99.90;;;;;;5052509;28;20028;-78
2023/05/15 03:11:30;;;;;;;7.72;5.82;;;11.30;99.90;;;;;;5053672;28;20032;-79
2023/05/15 03:13:56;;;;;;;6.38;5.78;;;11.30;99.90;;;;;;5053805;28;20056;-78
2023/05/15 03:16:21;;;;;;;7.43;5.30;;;11.30;99.90;;;;;;5052180;28;20466;-79
2023/05/15 03:18:47;;;;;;;6.70;5.72;;;11.30;99.90;;;;;;5053544;28;20037;-78
2023/05/15 03:21:13;;;;;;;6.88;5.82;;;11.30;99.90;;;;;;5053274;28;20021;-78
2023/05/15 03:23:38;;;;;;;5.65;5.05;;;11.20;99.90;;;;;;5055338;28;20029;-79
2023/05/15 03:26:04;;;;;;;6.65;5.88;;;11.20;99.90;;;;;;5043682;28;20026;-78
2023/05/15 03:28:30;;;;;;;6.80;5.75;;;11.20;99.90;;;;;;5035397;28;20390;-79
2023/05/15 03:30:55;;;;;;;5.55;5.05;;;11.20;99.90;;;;;;5035402;28;20033;-78
2023/05/15 03:33:21;;;;;;;6.35;5.35;;;11.30;99.90;;;;;;5035275;28;20034;-79
2023/05/15 03:35:47;;;;;;;6.15;5.55;;;11.30;99.90;;;;;;5034054;28;20029;-78
2023/05/15 03:38:12;;;;;;;6.60;5.18;;;11.30;99.90;;;;;;5033966;28;20112;-78
2023/05/15 03:40:38;;;;;;;6.10;5.50;;;11.30;99.90;;;;;;5033964;28;20389;-79
2023/05/15 03:43:04;;;;;;;5.30;4.80;;;11.30;99.90;;;;;;5035170;28;20021;-79
2023/05/15 03:45:32;;;;;;;5.38;4.88;;;11.30;99.90;;;;;;5035187;28;20028;-79
2023/05/15 03:47:57;;;;;;;5.65;5.15;;;11.30;99.90;;;;;;5033720;28;20028;-79
2023/05/15 03:50:23;;;;;;;5.05;4.55;;;11.30;99.90;;;;;;5035042;28;20402;-78
2023/05/15 03:52:49;;;;;;;6.68;4.90;;;11.30;99.90;;;;;;5034903;28;20075;-78
2023/05/15 03:55:14;;;;;;;5.90;5.20;;;11.30;99.90;;;;;;5034984;28;20037;-77
2023/05/15 03:57:40;;;;;;;5.43;4.93;;;11.30;99.90;;;;;;5034902;28;20088;-78
2023/05/15 04:00:09;;;;;;;6.18;4.95;;;11.30;99.90;;;;;;5034813;28;20462;-78
2023/05/15 04:02:35;;;;;;;5.18;4.65;;;11.30;99.90;;;;;;5033445;28;20026;-79
2023/05/15 04:05:05;;;;;;;5.45;4.95;;;11.30;99.90;;;;;;5033482;28;20027;-78
2023/05/15 04:07:32;;;;;;;4.47;4.15;;;11.30;99.90;;;;;;5034766;28;20105;-78
2023/05/15 04:10:01;;;;;;;4.97;4.32;;;11.30;99.90;;;;;;5033452;28;20025;-78
2023/05/15 04:12:28;;;;;;;4.90;4.40;;;11.30;99.90;;;;;;5033313;28;20033;-79
2023/05/15 04:14:55;;;;;;;4.55;4.25;;;11.30;99.90;;;;;;5034476;28;20108;-79
2023/05/15 04:17:21;;;;;;;10.63;6.25;;;11.30;99.90;;;;;;5034300;28;20053;-78
2023/05/15 04:19:46;;;;;;;10.25;6.60;;;11.40;99.90;;;;;;5033149;28;20131;-79
2023/05/15 04:22:12;;;;;;;8.10;5.53;;;11.40;99.90;;;;;;5033030;28;20079;-79
2023/05/15 04:24:38;;;;;;;8.40;4.70;;;11.40;99.90;;;;;;5033075;28;20053;-79
2023/05/15 04:27:04;;;;;;;6.85;4.97;;;11.40;99.90;;;;;;5034229;28;20573;-79
2023/05/15 04:29:29;;;;;;;5.72;5.15;;;11.40;99.90;;;;;;5034337;28;20060;-79
2023/05/15 04:31:55;;;;;;;6.63;4.28;;;11.40;99.90;;;;;;5032876;28;20017;-79
2023/05/15 04:34:20;;;;;;;4.25;3.85;;;11.40;99.90;;;;;;5034107;28;20037;-78
2023/05/15 04:36:47;;;;;;;4.15;3.80;;;11.40;99.90;;;;;;5034100;28;20048;-78
2023/05/15 04:39:12;;;;;;;5.78;3.92;;;11.40;99.90;;;;;;5032827;28;20429;-78
2023/05/15 04:41:38;;;;;;;4.97;4.47;;;11.50;99.90;;;;;;5032735;28;20104;-78
2023/05/15 04:44:05;;;;;;;4.00;3.65;;;11.50;99.90;;;;;;5034011;28;20032;-78
2023/05/15 04:46:33;;;;;;;4.63;3.97;;;11.40;99.90;;;;;;5032574;28;20491;-79
2023/05/15 04:48:59;;;;;;;4.47;4.05;;;11.50;99.90;;;;;;5033945;28;20021;-79
2023/05/15 04:51:24;;;;;;;4.15;3.80;;;11.50;99.90;;;;;;5033918;28;20080;-79
2023/05/15 04:53:50;;;;;;;4.30;3.90;;;11.50;99.90;;;;;;5032390;28;20037;-78
2023/05/15 04:56:16;;;;;;;3.80;3.50;;;11.60;99.90;;;;;;5033661;28;20025;-78
2023/05/15 04:58:41;;;;;;;4.63;3.90;;;11.60;99.90;;;;;;5032366;28;20120;-79
2023/05/15 05:01:07;;;;;;;4.45;4.00;;;11.60;99.90;;;;;;5033458;28;20104;-79
2023/05/15 05:03:32;;;;;;;3.88;3.58;;;11.70;99.90;;;;;;5032079;28;20025;-79
2023/05/15 05:05:59;;;;;;;4.35;3.95;;;11.70;99.90;;;;;;5033629;28;20029;-79
2023/05/15 05:08:24;;;;;;;3.72;3.42;;;11.90;99.90;;;;;;5048214;28;20020;-80
2023/05/15 05:10:56;;;;;;;4.05;3.67;;;11.90;99.90;;;;;;5050666;28;20040;-79
2023/05/15 05:13:21;;;;;;;4.20;3.85;;;12.00;99.90;;;;;;5051713;28;20098;-79
2023/05/15 05:15:47;;;;;;;3.97;3.67;;;12.00;99.90;;;;;;5052680;28;20060;-80
2023/05/15 05:18:13;;;;;;;4.90;4.40;;;12.10;99.90;;;;;;5052323;28;20053;-80
2023/05/15 05:20:38;;;;;;;6.10;4.93;;;12.10;99.90;;;;;;5052787;28;20432;-81
2023/05/15 05:23:04;;;;;;;4.70;4.30;;;12.00;99.90;;;;;;5051530;28;20056;-80
2023/05/15 05:25:29;;;;;;;4.75;4.22;;;12.10;99.90;;;;;;5053293;28;20100;-78
2023/05/15 05:27:55;;;;;;;5.20;4.70;;;12.10;99.90;;;;;;5052046;28;20529;-80
2023/05/15 05:30:21;;;;;;;4.90;4.50;;;12.10;99.90;;;;;;5051818;28;20017;-80
2023/05/15 05:32:46;;;;;;;4.93;4.53;;;12.10;99.90;;;;;;5051970;28;20466;-79
2023/05/15 05:35:12;;;;;;;5.05;4.55;;;12.10;99.90;;;;;;5052064;28;20095;-78
2023/05/15 05:37:38;;;;;;;5.07;4.57;;;12.10;99.90;;;;;;5051897;28;20075;-78
2023/05/15 05:40:05;;;;;;;6.15;4.25;;;12.10;99.90;;;;;;5046830;28;20078;-78
2023/05/15 05:42:31;;;;;;;6.00;5.40;;;12.10;99.90;;;;;;5045205;28;20423;-80
2023/05/15 05:44:57;;;;;;;6.40;5.10;;;12.10;99.90;;;;;;5050385;28;20025;-81
2023/05/15 05:47:22;;;;;;;8.77;5.38;;;12.10;99.90;;;;;;5046869;28;20021;-80
2023/05/15 05:49:48;;;;;;;9.43;6.30;;;12.10;99.90;;;;;;5040157;28;20393;-81
2023/05/15 05:52:14;;;;;;;7.28;5.93;;;12.20;99.90;;;;;;5050130;28;20016;-79
2023/05/15 05:54:40;;;;;;;6.40;5.63;;;12.20;99.90;;;;;;5050071;28;20036;-79
2023/05/15 05:57:06;;;;;;;6.72;6.13;;;12.20;99.90;;;;;;5051319;28;20024;-79
2023/05/15 05:59:32;;;;;;;7.15;6.45;;;12.20;99.90;;;;;;5050262;28;20025;-80
2023/05/15 06:01:58;;;;;;;6.93;5.72;;;12.30;99.90;;;;;;5050086;28;20017;-79
2023/05/15 06:04:23;;;;;;;6.70;6.10;;;12.30;99.90;;;;;;5050273;28;20013;-78
2023/05/15 06:06:49;;;;;;;6.40;5.60;;;12.20;99.90;;;;;;5051534;28;20017;-80
2023/05/15 06:09:15;;;;;;;6.57;5.90;;;12.20;99.90;;;;;;5050395;28;20468;-80
2023/05/15 06:11:41;;;;;;;6.32;5.72;;;12.20;99.90;;;;;;5050328;28;20470;-81
2023/05/15 06:14:07;;;;;;;6.28;5.68;;;12.20;99.90;;;;;;5051492;28;20437;-81
2023/05/15 06:16:32;;;;;;;11.13;6.75;;;12.10;99.90;;;;;;5054238;28;20100;-80
2023/05/15 06:18:58;;;;;;;6.25;5.53;;;12.20;99.90;;;;;;5056700;28;20115;-81
2023/05/15 06:21:24;;;;;;;7.15;6.45;;;12.10;99.90;;;;;;5056671;28;20091;-81
2023/05/15 06:23:49;;;;;;;7.15;6.20;;;12.20;99.90;;;;;;5055496;28;20021;-80
2023/05/15 06:26:15;;;;;;;6.05;5.55;;;12.20;99.90;;;;;;5055878;28;20021;-80
2023/05/15 06:28:40;;;;;;;8.15;6.60;;;12.20;99.90;;;;;;5054147;28;20063;-80
2023/05/15 06:31:06;;;;;;;6.55;5.78;;;12.30;99.90;;;;;;5054434;28;20024;-79
2023/05/15 06:33:32;;;;;;;6.15;5.55;;;12.30;99.90;;;;;;5056329;28;20025;-81
2023/05/15 06:35:57;;;;;;;7.47;6.15;;;12.40;99.90;;;;;;5055220;28;20112;-81
2023/05/15 06:38:23;;;;;;;7.13;6.43;;;12.50;99.90;;;;;;5054504;28;20519;-80
2023/05/15 06:40:48;;;;;;;7.25;6.18;;;12.60;99.90;;;;;;5054909;28;20025;-81
2023/05/15 06:43:14;;;;;;;8.05;5.78;;;12.70;99.90;;;;;;5054614;28;20028;-81
2023/05/15 06:45:39;;;;;;;7.00;6.30;;;12.70;99.90;;;;;;5054431;28;20485;-80
2023/05/15 06:48:05;;;;;;;7.00;6.35;;;12.80;99.90;;;;;;5054812;28;20055;-80
2023/05/15 06:50:31;;;;;;;6.30;5.35;;;12.90;99.90;;;;;;5053410;28;20104;-80
2023/05/15 06:52:57;;;;;;;7.05;6.35;;;13.00;99.90;;;;;;5053341;28;20053;-80
2023/05/15 06:55:22;;;;;;;8.05;7.18;;;13.00;99.90;;;;;;5053182;28;20029;-81
2023/05/15 06:57:48;;;;;;;7.82;6.40;;;13.00;99.90;;;;;;5053163;28;20019;-80
2023/05/15 07:00:14;;;;;;;6.18;5.30;;;13.00;99.90;;;;;;5054454;28;20116;-80
2023/05/15 07:02:40;;;;;;;6.78;5.40;;;13.20;99.90;;;;;;5055253;28;20048;-80
2023/05/15 07:05:07;;;;;;;6.25;5.60;;;13.20;99.90;;;;;;5053171;28;20028;-80
2023/05/15 07:07:33;;;;;;;5.88;5.18;;;13.30;99.90;;;;;;5052671;28;20024;-79
2023/05/15 07:09:59;;;;;;;5.63;5.13;;;13.40;99.90;;;;;;5052799;28;20466;-80
2023/05/15 07:12:25;;;;;;;7.57;5.35;;;13.40;99.90;;;;;;5054930;28;20013;-80
2023/05/15 07:14:50;;;;;;;6.68;5.70;;;13.50;99.90;;;;;;5053993;28;20379;-80
2023/05/15 07:17:18;;;;;;;5.40;4.70;;;13.50;99.90;;;;;;5052572;28;20041;-80
2023/05/15 07:19:43;;;;;;;4.32;4.00;;;13.60;99.90;;;;;;5053095;28;20017;-80
2023/05/15 07:22:09;;;;;;;4.70;4.28;;;13.70;99.90;;;;;;5047048;28;20397;-80
2023/05/15 07:24:35;;;;;;;4.88;3.92;;;13.70;99.90;;;;;;5048897;28;20013;-79
2023/05/15 07:27:00;;;;;;;4.20;3.83;;;13.70;99.90;;;;;;5049440;28;20032;-80
2023/05/15 07:29:26;;;;;;;5.60;5.10;;;13.90;99.90;;;;;;5048104;28;20032;-82
2023/05/15 07:31:52;;;;;;;6.53;5.82;;;14.00;99.90;;;;;;5050951;28;20032;-81
2023/05/15 07:34:18;;;;;;;6.07;5.57;;;14.10;99.90;;;;;;5049662;28;20035;-81
2023/05/15 07:36:43;;;;;;;5.40;4.90;;;14.10;99.90;;;;;;5050196;28;20033;-80
2023/05/15 07:39:09;;;;;;;4.90;4.40;;;14.10;99.90;;;;;;5052330;28;20021;-80
2023/05/15 07:41:35;;;;;;;4.60;4.20;;;14.10;99.90;;;;;;5052340;28;20065;-81
2023/05/15 07:44:01;;;;;;;4.40;4.00;;;14.10;99.90;;;;;;5051389;28;20056;-80
2023/05/15 07:46:26;;;;;;;5.28;4.35;;;14.10;99.90;;;;;;5051032;28;20131;-80
2023/05/15 07:48:52;;;;;;;4.53;4.13;;;14.10;99.90;;;;;;5051332;28;20100;-80
2023/05/15 07:51:17;;;;;;;5.75;4.32;;;14.10;99.90;;;;;;5053685;28;20057;-80
2023/05/15 07:53:43;;;;;;;4.35;3.95;;;14.00;99.90;;;;;;5052957;28;20041;-79
2023/05/15 07:56:09;;;;;;;4.70;4.28;;;14.10;99.90;;;;;;5052360;28;20033;-79
2023/05/15 07:58:36;;;;;;;9.13;4.80;;;14.20;99.90;;;;;;5052397;28;20104;-80
2023/05/15 08:01:02;;;;;;;5.00;4.60;;;14.20;99.90;;;;;;5052641;28;20095;-80
2023/05/15 08:03:28;;;;;;;5.45;4.40;;;14.20;99.90;;;;;;5050876;28;20021;-81
2023/05/15 08:05:53;;;;;;;4.45;3.70;;;14.30;99.90;;;;;;5053137;28;20088;-80
2023/05/15 08:08:19;;;;;;;5.22;3.80;;;14.30;99.90;;;;;;5051949;28;20033;-81
2023/05/15 08:10:45;;;;;;;4.80;3.88;;;14.40;99.90;;;;;;5052900;28;20505;-80
2023/05/15 08:13:10;;;;;;;4.32;3.90;;;14.50;99.90;;;;;;5053846;28;20021;-80
2023/05/15 08:15:36;;;;;;;4.15;3.72;;;14.60;99.90;;;;;;5053434;28;20120;-79
2023/05/15 08:18:07;;;;;;;4.45;4.03;;;14.70;99.90;;;;;;5052352;28;20052;-80
2023/05/15 08:20:33;;;;;;;4.32;3.92;;;14.70;99.90;;;;;;5051789;28;20693;-80
2023/05/15 08:22:58;;;;;;;4.32;3.90;;;14.80;99.90;;;;;;5051897;28;20025;-80
2023/05/15 08:25:24;;;;;;;4.20;3.80;;;14.90;99.90;;;;;;5051544;28;20044;-80
2023/05/15 08:27:50;;;;;;;4.50;4.10;;;14.90;99.90;;;;;;5052251;28;20047;-80
2023/05/15 08:30:16;;;;;;;8.20;5.72;;;14.90;99.90;;;;;;5051810;28;20148;-80
2023/05/15 08:32:44;;;;;;;6.50;4.93;;;15.00;99.90;;;;;;5052001;28;20100;-80
2023/05/15 08:35:10;;;;;;;3.72;3.33;;;14.90;99.90;;;;;;5051533;28;20045;-80
2023/05/15 08:37:36;;;;;;;4.88;4.47;;;14.90;99.90;;;;;;5051776;28;20700;-81
2023/05/15 08:40:04;;;;;;;6.03;5.43;;;14.80;99.90;;;;;;5050097;28;20025;-82
2023/05/15 08:42:52;;;;;;;5.35;4.85;;;14.80;99.90;;;;;;5052468;28;20033;-81
2023/05/15 08:45:18;;;;;;;6.40;5.75;;;14.70;99.90;;;;;;5052526;28;20049;-79
2023/05/15 08:47:44;;;;;;;10.75;7.35;;;14.70;99.90;;;;;;5051578;28;20037;-79
2023/05/15 08:50:15;;;;;;;6.05;5.47;;;14.60;99.90;;;;;;5052031;28;20031;-80
2023/05/15 08:52:44;;;;;;;6.07;5.13;;;14.60;99.90;;;;;;5050553;28;20021;-81
2023/05/15 08:55:10;;;;;;;5.60;5.10;;;14.60;99.90;;;;;;5051332;28;20482;-81
2023/05/15 08:57:37;;;;;;;6.28;5.68;;;14.60;99.90;;;;;;5051036;28;20079;-81
2023/05/15 09:00:07;;;;;;;6.53;5.93;;;14.60;99.90;;;;;;5051428;28;20025;-80
2023/05/15 09:02:37;;;;;;;6.50;5.90;;;14.70;99.90;;;;;;5049709;28;20397;-81
2023/05/15 09:05:03;;;;;;;6.97;6.25;;;14.70;99.90;;;;;;5050123;28;20020;-80
2023/05/15 09:07:30;;;;;;;9.07;8.18;;;14.70;99.90;;;;;;5046808;28;20039;-80
2023/05/15 09:09:57;;;;;;;9.80;8.80;;;14.70;99.90;;;;;;5051517;28;20535;-79
2023/05/15 09:12:25;;;;;;;9.68;8.45;;;14.70;99.90;;;;;;5051190;28;20036;-81
2023/05/15 09:14:51;;;;;;;8.32;7.32;;;14.70;99.90;;;;;;5052550;28;20040;-81
2023/05/15 09:17:17;;;;;;;8.98;8.02;;;14.60;99.90;;;;;;5050490;28;20098;-81
2023/05/15 09:19:42;;;;;;;9.48;8.63;;;14.60;99.90;;;;;;5048419;28;20032;-81
2023/05/15 09:22:23;;;;;;;10.07;9.05;;;14.60;99.90;;;;;;5050446;28;20106;-81
2023/05/15 09:24:51;;;;;;;10.43;9.52;;;14.60;99.90;;;;;;5049383;28;20021;-81
2023/05/15 09:27:18;;;;;;;11.52;9.18;;;14.50;99.90;;;;;;5043921;28;20033;-80
2023/05/15 09:29:44;;;;;;;11.45;10.35;;;14.60;99.90;;;;;;5050980;28;20029;-81
2023/05/15 09:32:12;;;;;;;10.73;8.02;;;14.70;99.90;;;;;;5049169;28;20036;-81
2023/05/15 09:34:43;;;;;;;11.15;9.70;;;14.60;99.90;;;;;;5050641;28;20061;-81
2023/05/15 09:37:11;;;;;;;14.77;13.23;;;14.70;99.90;;;;;;5051129;28;20033;-81
2023/05/15 09:39:42;;;;;;;8.63;7.82;;;14.80;99.90;;;;;;5050644;28;20048;-81
2023/05/15 09:42:10;;;;;;;7.68;6.93;;;14.70;99.90;;;;;;5051902;28;20033;-81
2023/05/15 09:44:40;;;;;;;8.80;8.00;;;14.70;99.90;;;;;;5050670;28;20021;-81
2023/05/15 09:47:06;;;;;;;9.50;8.60;;;14.80;99.90;;;;;;5049955;28;20025;-81
2023/05/15 09:49:32;;;;;;;11.15;10.07;;;14.90;99.90;;;;;;5050949;28;20112;-81
2023/05/15 09:51:58;;;;;;;7.60;6.90;;;15.10;99.90;;;;;;5054465;28;20512;-80
2023/05/15 09:54:28;;;;;;;9.07;7.35;;;15.10;99.90;;;;;;5053979;28;20033;-80
2023/05/15 09:56:55;;;;;;;8.95;8.10;;;15.10;99.90;;;;;;5055988;28;20045;-81
2023/05/15 09:59:21;;;;;;;8.60;6.95;;;15.10;99.90;;;;;;5054713;28;20025;-79
2023/05/15 10:01:53;;;;;;;7.38;6.05;;;15.10;99.90;;;;;;5055242;28;20045;-78
2023/05/15 10:04:19;;;;;;;5.82;5.30;;;15.20;99.90;;;;;;5056287;28;20451;-79
2023/05/15 10:06:46;;;;;;;5.45;4.78;;;15.10;99.90;;;;;;5053054;28;20120;-79
2023/05/15 10:09:13;;;;;;;6.13;5.53;;;15.10;99.90;;;;;;5054155;28;20021;-78
2023/05/15 10:11:42;;;;;;;6.78;6.18;;;15.10;99.90;;;;;;5053336;28;20086;-78
2023/05/15 10:14:10;;;;;;;10.15;9.10;;;15.20;99.90;;;;;;5054284;28;20098;-79
2023/05/15 10:16:37;;;;;;;10.27;9.05;;;15.20;99.90;;;;;;5052853;28;20766;-80
2023/05/15 10:19:08;;;;;;;12.63;10.10;;;15.30;99.90;;;;;;5055964;28;20025;-80
2023/05/15 10:21:39;;;;;;;12.45;10.02;;;15.40;99.90;;;;;;5046242;28;20079;-78
2023/05/15 10:24:05;;;;;;;14.90;12.23;;;15.40;99.90;;;;;;5020686;28;20060;-79
2023/05/15 10:26:35;;;;;;;8.45;7.25;;;15.40;99.90;;;;;;5044003;28;20437;-78
2023/05/15 10:29:03;;;;;;;3.65;3.35;;;15.40;99.90;;;;;;5024201;28;20116;-79
2023/05/15 10:31:30;;;;;;;4.35;4.00;;;15.50;99.90;;;;;;5045056;28;20036;-79
2023/05/15 10:33:55;;;;;;;5.13;3.95;;;15.60;99.90;;;;;;5021130;28;20049;-79
2023/05/15 10:36:22;;;;;;;5.70;4.65;;;15.60;99.90;;;;;;5012615;28;20026;-81
2023/05/15 10:38:49;;;;;;;4.35;3.83;;;15.60;99.90;;;;;;5015704;28;20037;-80
2023/05/15 10:41:16;;;;;;;4.20;3.90;;;15.70;99.90;;;;;;5033827;28;20014;-80
2023/05/15 10:43:43;;;;;;;5.32;4.60;;;15.80;99.90;;;;;;5033662;28;20038;-80
2023/05/15 10:46:10;;;;;;;4.50;4.20;;;15.80;99.90;;;;;;5016466;28;20442;-79
2023/05/15 10:48:36;;;;;;;4.38;3.92;;;15.80;99.90;;;;;;5017345;28;20053;-79
2023/05/15 10:51:01;;;;;;;5.90;4.82;;;15.90;99.90;;;;;;5034965;28;20028;-80
2023/05/15 10:53:27;;;;;;;4.88;4.47;;;15.90;99.90;;;;;;5017099;28;20033;-79
2023/05/15 10:55:53;;;;;;;5.10;4.60;;;15.90;99.90;;;;;;5017372;28;20086;-79
2023/05/15 10:58:24;;;;;;;4.20;3.50;;;15.80;99.90;;;;;;5016183;28;20112;-80
2023/05/15 11:00:50;;;;;;;3.58;3.13;;;15.80;99.90;;;;;;5013227;28;20017;-80
2023/05/15 11:03:34;;;;;;;3.95;3.65;;;15.80;99.90;;;;;;5016221;28;20163;-80
2023/05/15 11:06:10;;;;;;;2.85;2.65;;;15.80;99.90;;;;;;5016840;28;20021;-80
2023/05/15 11:08:37;;;;;;;5.13;2.72;;;15.80;99.90;;;;;;5016911;28;20029;-79
2023/05/15 11:11:03;;;;;;;3.00;2.70;;;15.80;99.90;;;;;;5034272;28;20029;-79
2023/05/15 11:14:03;;;;;;;3.17;2.97;;;15.80;99.90;;;;;;5050450;28;20049;-79
2023/05/15 11:16:54;;;;;;;3.97;2.83;;;15.80;99.90;;;;;;5036520;28;20094;-79
2023/05/15 11:19:28;;;;;;;4.55;2.70;;;15.80;99.90;;;;;;5035406;28;20120;-79
2023/05/15 11:21:57;;;;;;;2.90;2.60;;;15.80;99.90;;;;;;5016627;28;20021;-77
2023/05/15 11:24:30;;;;;;;2.55;2.35;;;15.70;99.90;;;;;;5034392;28;20060;-78
2023/05/15 11:27:01;;;;;;;2.40;2.20;;;15.70;99.90;;;;;;5018588;28;20544;-79
2023/05/15 11:29:27;;;;;;;2.60;2.38;;;15.60;99.90;;;;;;5050940;28;20036;-80
2023/05/15 11:31:53;;;;;;;3.45;3.05;;;15.60;99.90;;;;;;5052846;28;20471;-79
2023/05/15 11:34:29;;;;;;;2.72;2.53;;;15.90;99.90;;;;;;5052446;28;20074;-80
2023/05/15 11:36:58;;;;;;;3.53;2.85;;;16.10;99.90;;;;;;5018796;28;20037;-79
2023/05/15 11:39:24;;;;;;;2.90;2.53;;;16.10;99.90;;;;;;5036158;28;20132;-80
2023/05/15 11:41:50;;;;;;;3.35;3.05;;;16.10;99.90;;;;;;5053794;28;20032;-79
2023/05/15 11:44:23;;;;;;;3.80;3.50;;;16.20;99.90;;;;;;5051876;28;20378;-79
2023/05/15 11:46:50;;;;;;;;;;;16.20;99.90;;;;;;5035269;28;20013;-79
2023/05/15 11:49:20;;;;;;;8.05;5.85;;;16.20;99.90;;;;;;5052326;28;19979;-80
2023/05/15 11:51:50;;;;;;;2.60;2.40;;;16.40;99.90;;;;;;5053606;28;20020;-80
2023/05/15 11:54:16;;;;;;;5.10;3.90;;;16.50;99.90;;;;;;5053510;28;20498;-80
2023/05/15 11:56:43;;;;;;;2.75;2.00;;;16.50;99.90;;;;;;5035662;28;20021;-80
2023/05/15 11:59:13;;;;;;;2.65;2.45;;;16.70;99.90;;;;;;5052689;28;20029;-80
2023/05/15 12:01:42;;;;;;;4.10;3.80;;;16.90;99.90;;;;;;5059964;28;20635;-80
2023/05/15 12:04:16;;;;;;;4.47;4.03;;;16.90;99.90;;;;;;5074436;28;20024;-80
2023/05/15 12:06:46;;;;;;;5.40;4.70;;;17.00;99.90;;;;;;5074428;28;20023;-80
2023/05/15 12:09:16;;;;;;;3.45;3.22;;;17.00;99.90;;;;;;5074407;28;20146;-80
2023/05/15 12:11:52;;;;;;;5.63;5.13;;;16.90;99.90;;;;;;5032313;28;20087;-80
2023/05/15 12:14:28;;;;;;;8.68;7.97;;;16.90;99.90;;;;;;5050582;28;20624;-80
2023/05/15 12:17:01;;;;;;;6.75;6.15;;;16.80;99.90;;;;;;5051987;28;20044;-80
2023/05/15 12:19:27;;;;;;;6.20;4.05;;;16.80;99.90;;;;;;5052470;28;20124;-80
2023/05/15 12:21:53;;;;;;;4.45;2.40;;;16.70;99.90;;;;;;5052942;28;20443;-80
2023/05/15 12:24:20;;;;;;;17.67;8.60;;;16.70;99.90;;;;;;5054241;28;20051;-80
2023/05/15 12:26:46;;;;;;;22.77;15.50;;;16.60;99.90;;;;;;5052784;28;20021;-80
2023/05/15 12:29:12;;;;;;;7.18;4.22;;;16.70;99.90;;;;;;5051266;28;20022;-80
2023/05/15 12:31:38;;;;;;;92.13;30.00;;;16.70;99.90;;;;;;5049357;28;20452;-80
2023/05/15 12:34:04;;;;;;;36.33;17.42;;;16.90;99.90;;;;;;5052994;28;20037;-80
2023/05/15 12:36:30;;;;;;;71.53;41.00;;;17.00;99.90;;;;;;5052159;28;20132;-79
2023/05/15 12:38:56;;;;;;;47.70;14.73;;;17.30;99.90;;;;;;5054122;28;20069;-79
2023/05/15 12:41:27;;;;;;;8.65;4.28;;;17.30;99.90;;;;;;5052669;28;20455;-78
2023/05/15 12:43:53;;;;;;;63.10;36.42;;;17.60;99.90;;;;;;5051990;28;20028;-79
2023/05/15 12:46:24;;;;;;;18.75;6.82;;;17.60;99.90;;;;;;5052465;28;20101;-80